createdAt,value
2019-05-05T00:02:07.594Z,5.00
2019-05-05T00:04:47.098Z,5.00
2019-05-05T00:07:19.670Z,4.90
2019-05-05T00:09:48.826Z,4.80
2019-05-05T00:12:31.629Z,4.90
2019-05-05T00:15:12.210Z,4.10
2019-05-05T00:17:41.591Z,5.00
2019-05-05T00:20:10.900Z,4.90
2019-05-05T00:22:39.845Z,4.90
2019-05-05T00:27:37.398Z,4.80
2019-05-05T00:30:07.057Z,4.90
2019-05-05T00:32:36.495Z,4.90
2019-05-05T00:35:06.155Z,4.80
2019-05-05T00:37:35.732Z,4.80
2019-05-05T00:40:05.460Z,4.80
2019-05-05T00:42:35.205Z,4.60
2019-05-05T00:50:14.619Z,4.70
2019-05-05T00:52:44.627Z,4.90
2019-05-05T00:55:15.115Z,4.80
2019-05-05T00:57:45.350Z,4.80
2019-05-05T01:00:26.238Z,4.90
2019-05-05T01:02:55.536Z,4.90
2019-05-05T01:05:41.714Z,4.80
2019-05-05T01:10:44.506Z,4.80
2019-05-05T01:13:15.202Z,4.90
2019-05-05T01:15:44.931Z,4.90
2019-05-05T01:18:15.195Z,4.90
2019-05-05T01:20:44.928Z,4.70
2019-05-05T01:23:15.006Z,4.80
2019-05-05T01:25:46.125Z,4.80
2019-05-05T01:28:15.307Z,5.00
2019-05-05T01:33:46.241Z,4.60
2019-05-05T01:36:15.278Z,4.80
2019-05-05T01:38:55.137Z,4.70
2019-05-05T01:41:30.125Z,4.70
2019-05-05T01:43:59.169Z,4.80
2019-05-05T01:46:28.620Z,4.80
2019-05-05T01:48:57.828Z,4.80
2019-05-05T01:51:26.988Z,4.70
2019-05-05T01:56:24.858Z,4.60
2019-05-05T01:58:54.718Z,4.70
2019-05-05T02:01:24.665Z,4.80
2019-05-05T02:03:54.927Z,4.80
2019-05-05T02:06:24.837Z,4.90
2019-05-05T02:08:54.765Z,4.90
2019-05-05T02:11:24.797Z,4.80
2019-05-05T02:13:54.672Z,4.60
2019-05-05T02:18:54.653Z,4.60
2019-05-05T02:21:24.750Z,4.70
2019-05-05T02:23:54.759Z,4.50
2019-05-05T02:26:24.622Z,4.50
2019-05-05T02:29:00.506Z,4.60
2019-05-05T02:31:47.376Z,4.60
2019-05-05T02:34:16.671Z,4.70
2019-05-05T02:36:46.103Z,4.70
2019-05-05T02:41:45.451Z,4.60
2019-05-05T02:44:15.469Z,4.60
2019-05-05T02:47:00.949Z,4.50
2019-05-05T02:49:30.059Z,4.60
2019-05-05T02:52:04.686Z,4.60
2019-05-05T02:54:33.865Z,4.70
2019-05-05T02:57:04.623Z,4.70
2019-05-05T03:02:16.013Z,4.70
2019-05-05T03:04:45.128Z,4.70
2019-05-05T03:07:14.340Z,4.60
2019-05-05T03:09:43.956Z,4.70
2019-05-05T03:12:14.907Z,4.70
2019-05-05T03:14:44.641Z,4.80
2019-05-05T03:17:14.446Z,4.70
2019-05-05T03:19:44.413Z,4.70
2019-05-05T03:24:44.651Z,4.70
2019-05-05T03:27:14.445Z,4.70
2019-05-05T03:29:44.325Z,4.70
2019-05-05T03:32:16.190Z,4.80
2019-05-05T03:34:44.719Z,4.80
2019-05-05T03:37:16.492Z,4.80
2019-05-05T03:39:51.175Z,4.70
2019-05-05T03:42:35.569Z,4.80
2019-05-05T03:47:37.771Z,4.70
2019-05-05T03:50:07.322Z,4.70
2019-05-05T03:52:36.600Z,4.70
2019-05-05T03:55:06.969Z,4.60
2019-05-05T03:57:36.243Z,4.60
2019-05-05T04:00:07.566Z,4.50
2019-05-05T04:02:53.948Z,4.60
2019-05-05T04:10:38.247Z,4.60
2019-05-05T04:13:07.380Z,4.70
2019-05-05T04:15:38.341Z,4.60
2019-05-05T04:18:23.797Z,4.70
2019-05-05T04:20:53.480Z,4.70
2019-05-05T04:23:24.558Z,4.90
2019-05-05T04:25:54.433Z,4.70
2019-05-05T04:28:24.152Z,4.70
2019-05-05T04:33:23.646Z,4.70
2019-05-05T04:35:54.492Z,4.60
2019-05-05T04:38:24.316Z,4.10
2019-05-05T04:40:54.147Z,4.70
2019-05-05T04:43:24.593Z,4.70
2019-05-05T04:45:54.143Z,4.80
2019-05-05T04:48:40.014Z,4.90
2019-05-05T04:51:43.471Z,4.80
2019-05-05T04:56:55.722Z,4.70
2019-05-05T04:59:24.869Z,4.80
2019-05-05T05:04:56.482Z,4.70
2019-05-05T05:07:25.516Z,4.70
2019-05-05T05:09:54.654Z,4.80
2019-05-05T05:12:23.889Z,4.80
2019-05-05T05:14:54.696Z,4.70
2019-05-05T05:17:29.978Z,4.60
2019-05-05T05:22:27.981Z,4.80
2019-05-05T05:25:00.390Z,4.80
2019-05-05T05:27:29.631Z,4.80
2019-05-05T05:29:58.898Z,4.80
2019-05-05T05:32:28.236Z,4.90
2019-05-05T05:34:57.595Z,4.90
2019-05-05T05:37:26.594Z,4.90
2019-05-05T05:40:05.005Z,4.90
2019-05-05T05:45:20.346Z,5.90
2019-05-05T05:48:03.992Z,4.90
2019-05-05T05:50:36.306Z,4.80
2019-05-05T05:53:05.536Z,5.00
2019-05-05T05:55:34.912Z,5.00
2019-05-05T05:58:04.814Z,5.10
2019-05-05T06:00:34.559Z,5.10
2019-05-05T06:03:05.629Z,5.20
2019-05-05T06:05:35.449Z,5.30
2019-05-05T06:13:04.093Z,4.90
2019-05-05T06:15:35.638Z,5.20
2019-05-05T06:18:06.123Z,5.30
2019-05-05T06:20:35.282Z,5.40
2019-05-05T06:23:04.566Z,5.40
2019-05-05T06:25:34.353Z,5.40
2019-05-05T06:30:33.794Z,5.40
2019-05-05T06:33:04.864Z,5.50
2019-05-05T06:35:34.011Z,5.50
2019-05-05T06:38:04.688Z,5.50
2019-05-05T06:40:53.756Z,5.40
2019-05-05T06:43:41.174Z,5.50
2019-05-05T06:46:11.661Z,5.50
2019-05-05T06:48:40.961Z,5.70
2019-05-05T06:53:38.899Z,5.70
2019-05-05T06:56:08.169Z,5.60
2019-05-05T06:58:37.310Z,5.60
2019-05-05T07:01:06.755Z,5.60
2019-05-05T07:03:35.929Z,5.60
2019-05-05T07:06:05.197Z,5.60
2019-05-05T07:08:34.829Z,5.60
2019-05-05T07:16:04.872Z,5.60
2019-05-05T07:18:34.268Z,5.60
2019-05-05T07:21:03.878Z,5.60
2019-05-05T07:23:34.196Z,5.50
2019-05-05T07:26:04.104Z,5.50
2019-05-05T07:28:34.265Z,5.50
2019-05-05T07:31:04.574Z,5.50
2019-05-05T07:33:34.648Z,5.40
2019-05-05T07:38:50.380Z,5.20
2019-05-05T07:41:19.698Z,5.20
2019-05-05T07:43:48.953Z,5.20
2019-05-05T07:46:18.136Z,5.20
2019-05-05T07:48:47.270Z,5.10
2019-05-05T07:51:16.529Z,5.10
2019-05-05T07:53:45.867Z,5.10
2019-05-05T07:58:44.219Z,5.10
2019-05-05T08:01:14.105Z,5.40
2019-05-05T08:03:44.564Z,5.40
2019-05-05T08:08:44.431Z,5.40
2019-05-05T08:11:14.710Z,5.60
2019-05-05T08:13:44.430Z,5.70
2019-05-05T08:16:27.553Z,5.70
2019-05-05T08:19:34.623Z,5.70
2019-05-05T08:22:03.991Z,5.80
2019-05-05T08:24:50.979Z,5.80
2019-05-05T08:27:39.209Z,5.80
2019-05-05T08:30:24.435Z,5.80
2019-05-05T08:32:54.496Z,5.80
2019-05-05T08:35:23.920Z,5.90
2019-05-05T08:37:54.234Z,5.90
2019-05-05T08:40:24.056Z,5.80
2019-05-05T08:45:26.194Z,5.60
2019-05-05T08:47:54.368Z,5.80
2019-05-05T08:50:26.475Z,5.70
2019-05-05T08:52:54.478Z,5.60
2019-05-05T08:55:24.884Z,5.50
2019-05-05T08:57:54.698Z,5.50
2019-05-05T09:00:24.515Z,5.40
2019-05-05T09:02:54.383Z,5.30
2019-05-05T09:05:23.941Z,5.30
2019-05-05T09:07:54.808Z,5.20
2019-05-05T09:10:23.952Z,5.30
2019-05-05T09:12:54.259Z,5.30
2019-05-05T09:15:24.290Z,5.40
2019-05-05T09:17:54.412Z,5.50
2019-05-05T09:20:24.269Z,5.50
2019-05-05T09:22:53.674Z,5.60
2019-05-05T09:25:39.453Z,5.60
2019-05-05T09:28:34.149Z,5.60
2019-05-05T09:31:04.175Z,5.60
2019-05-05T09:33:33.948Z,5.50
2019-05-05T09:36:04.666Z,5.50
2019-05-05T09:38:34.717Z,5.50
2019-05-05T09:41:04.155Z,5.50
2019-05-05T09:43:45.003Z,5.50
2019-05-05T09:46:17.069Z,5.50
2019-05-05T09:48:46.665Z,5.60
2019-05-05T09:51:15.687Z,5.60
2019-05-05T09:56:14.548Z,5.70
2019-05-05T09:58:44.105Z,5.80
2019-05-05T10:01:14.066Z,5.80
2019-05-05T10:03:44.698Z,5.80
2019-05-05T10:06:14.264Z,5.90
2019-05-05T10:08:44.615Z,6.00
2019-05-05T10:11:16.529Z,6.10
2019-05-05T10:13:44.665Z,6.10
2019-05-05T10:18:44.818Z,6.00
2019-05-05T10:21:13.931Z,6.10
2019-05-05T10:23:45.190Z,6.20
2019-05-05T10:26:14.903Z,6.40
2019-05-05T10:28:44.504Z,6.40
2019-05-05T10:31:13.891Z,6.50
2019-05-05T10:33:47.601Z,6.40
2019-05-05T10:36:16.658Z,6.40
2019-05-05T10:41:16.933Z,6.20
2019-05-05T10:43:46.124Z,6.40
2019-05-05T10:46:15.003Z,6.30
2019-05-05T10:48:47.280Z,6.30
2019-05-05T10:51:16.423Z,6.30
2019-05-05T10:53:45.250Z,6.30
2019-05-05T10:56:14.505Z,6.20
2019-05-05T11:01:14.537Z,6.10
2019-05-05T11:04:05.294Z,6.10
2019-05-05T11:06:34.388Z,6.10
2019-05-05T11:09:04.438Z,5.90
2019-05-05T11:11:34.400Z,5.80
2019-05-05T11:14:03.748Z,5.80
2019-05-05T11:16:32.602Z,5.90
2019-05-05T11:19:01.419Z,6.00
2019-05-05T11:21:30.414Z,6.10
2019-05-05T11:28:59.444Z,6.20
2019-05-05T11:31:28.483Z,6.20
2019-05-05T11:34:14.070Z,6.30
2019-05-05T11:36:50.709Z,6.50
2019-05-05T11:39:19.795Z,6.50
2019-05-05T11:41:49.013Z,6.40
2019-05-05T11:46:46.527Z,6.40
2019-05-05T11:49:15.868Z,6.30
2019-05-05T11:51:45.078Z,6.40
2019-05-05T11:54:16.094Z,6.30
2019-05-05T11:56:45.102Z,6.30
2019-05-05T11:59:14.556Z,6.20
2019-05-05T12:01:44.158Z,6.00
2019-05-05T12:04:14.728Z,6.10
2019-05-05T12:09:24.975Z,6.40
2019-05-05T12:11:56.620Z,6.10
2019-05-05T12:14:30.593Z,6.10
2019-05-05T12:16:59.412Z,6.10
2019-05-05T12:19:28.539Z,6.30
2019-05-05T12:21:57.651Z,6.30
2019-05-05T12:24:30.710Z,6.40
2019-05-05T12:27:17.231Z,6.20
2019-05-05T12:32:19.720Z,6.00
2019-05-05T12:34:48.816Z,6.00
2019-05-05T12:37:17.522Z,5.90
2019-05-05T12:39:46.503Z,6.00
2019-05-05T12:42:15.595Z,6.00
2019-05-05T12:44:53.836Z,6.20
2019-05-05T12:47:34.291Z,6.40
2019-05-05T12:52:33.566Z,6.50
2019-05-05T12:55:04.991Z,6.40
2019-05-05T12:57:34.295Z,6.50
2019-05-05T13:00:04.731Z,6.50
2019-05-05T13:02:33.887Z,6.50
2019-05-05T13:05:04.269Z,6.50
2019-05-05T13:07:33.863Z,6.40
2019-05-05T13:10:04.800Z,6.30
2019-05-05T13:15:04.104Z,6.10
2019-05-05T13:17:33.899Z,6.10
2019-05-05T13:20:34.233Z,6.10
2019-05-05T13:23:25.157Z,6.20
2019-05-05T13:26:15.898Z,6.20
2019-05-05T13:28:45.110Z,6.20
2019-05-05T13:31:14.296Z,6.30
2019-05-05T13:33:44.218Z,6.30
2019-05-05T13:36:13.845Z,6.40
2019-05-05T13:41:13.187Z,6.50
2019-05-05T13:43:42.377Z,6.50
2019-05-05T13:46:24.711Z,6.50
2019-05-05T13:48:55.989Z,6.70
2019-05-05T13:51:24.856Z,6.80
2019-05-05T13:53:54.163Z,6.80
2019-05-05T13:56:24.441Z,6.90
2019-05-05T14:01:23.763Z,7.00
2019-05-05T14:03:54.163Z,7.10
2019-05-05T14:06:24.264Z,7.20
2019-05-05T14:08:54.175Z,7.20
2019-05-05T14:11:24.715Z,7.10
2019-05-05T14:13:55.168Z,7.00
2019-05-05T14:16:24.222Z,7.00
2019-05-05T14:18:53.715Z,6.90
2019-05-05T14:24:03.884Z,7.00
2019-05-05T14:26:35.189Z,7.20
2019-05-05T14:29:04.420Z,7.20
2019-05-05T14:31:36.834Z,7.20
2019-05-05T14:34:13.941Z,7.30
2019-05-05T14:36:48.424Z,7.30
2019-05-05T14:39:17.994Z,7.30
2019-05-05T14:44:15.587Z,7.30
2019-05-05T14:46:44.695Z,7.40
2019-05-05T14:49:14.075Z,7.30
2019-05-05T14:51:44.728Z,7.10
2019-05-05T14:54:14.825Z,7.10
2019-05-05T14:56:44.151Z,7.10
2019-05-05T14:59:14.215Z,7.10
2019-05-05T15:01:48.823Z,7.30
2019-05-05T15:07:15.962Z,7.20
2019-05-05T15:10:06.805Z,7.30
2019-05-05T15:12:41.151Z,7.40
2019-05-05T15:15:10.194Z,7.30
2019-05-05T15:17:41.873Z,7.20
2019-05-05T15:20:10.754Z,7.20
2019-05-05T15:22:43.540Z,7.20
2019-05-05T15:25:15.587Z,7.30
2019-05-05T15:27:47.865Z,7.20
2019-05-05T15:32:46.501Z,8.40
2019-05-05T15:35:15.482Z,7.10
2019-05-05T15:37:44.392Z,7.00
2019-05-05T15:40:14.335Z,7.00
2019-05-05T15:42:43.958Z,7.00
2019-05-05T15:45:13.203Z,7.00
2019-05-05T15:47:43.598Z,7.00
2019-05-05T15:50:13.768Z,7.00
2019-05-05T15:55:14.154Z,7.10
2019-05-05T15:57:44.292Z,7.20
2019-05-05T16:00:14.069Z,7.20
2019-05-05T16:02:44.162Z,7.20
2019-05-05T16:05:13.849Z,7.30
2019-05-05T16:07:44.012Z,7.20
2019-05-05T16:10:13.711Z,7.20
2019-05-05T16:12:44.824Z,7.20
2019-05-05T16:18:28.291Z,7.30
2019-05-05T16:21:16.454Z,7.30
2019-05-05T16:23:51.700Z,7.30
2019-05-05T16:26:20.802Z,7.30
2019-05-05T16:28:50.082Z,7.20
2019-05-05T16:31:19.002Z,7.20
2019-05-05T16:33:48.708Z,7.10
2019-05-05T16:36:17.610Z,7.10
2019-05-05T16:38:46.372Z,7.20
2019-05-05T16:43:44.670Z,7.20
2019-05-05T16:46:16.760Z,7.20
2019-05-05T16:48:44.573Z,7.30
2019-05-05T16:51:15.440Z,7.30
2019-05-05T16:53:44.369Z,7.30
2019-05-05T16:56:15.912Z,7.30
2019-05-05T16:58:45.299Z,7.30
2019-05-05T17:03:45.774Z,7.00
2019-05-05T17:06:15.273Z,6.70
2019-05-05T17:08:44.613Z,6.40
2019-05-05T17:11:15.976Z,6.20
2019-05-05T17:14:08.645Z,5.50
2019-05-05T17:16:55.004Z,5.60
2019-05-05T17:19:53.825Z,5.20
2019-05-05T17:22:40.476Z,5.00
2019-05-05T17:25:13.755Z,5.00
2019-05-05T17:30:13.167Z,5.00
2019-05-05T17:32:43.700Z,4.90
2019-05-05T17:35:17.728Z,4.90
2019-05-05T17:37:46.798Z,5.00
2019-05-05T17:40:47.449Z,4.90
2019-05-05T17:43:47.914Z,5.00
2019-05-05T17:46:24.240Z,5.00
2019-05-05T17:49:11.272Z,4.90
2019-05-05T17:51:55.640Z,4.90
2019-05-05T17:57:03.528Z,4.90
2019-05-05T17:59:33.759Z,4.80
2019-05-05T18:02:04.766Z,4.90
2019-05-05T18:04:33.955Z,4.80
2019-05-05T18:07:10.831Z,4.80
2019-05-05T18:09:58.156Z,4.80
2019-05-05T18:12:34.361Z,4.80
2019-05-05T18:15:04.562Z,4.60
2019-05-05T18:20:06.573Z,4.70
2019-05-05T18:22:35.603Z,4.80
2019-05-05T18:25:14.343Z,4.90
2019-05-05T18:27:43.380Z,4.90
2019-05-05T18:30:12.303Z,4.90
2019-05-05T18:32:45.908Z,5.00
2019-05-05T18:35:15.004Z,5.00
2019-05-05T18:37:43.890Z,5.00
2019-05-05T18:43:04.406Z,5.00
2019-05-05T18:45:35.442Z,5.00
2019-05-05T18:48:08.435Z,5.00
2019-05-05T18:50:37.733Z,4.90
2019-05-05T18:53:08.784Z,4.90
2019-05-05T18:55:37.553Z,4.70
2019-05-05T18:58:07.923Z,4.80
2019-05-05T19:00:54.644Z,4.80
2019-05-05T19:03:28.482Z,4.80
2019-05-05T19:06:04.176Z,5.00
2019-05-05T19:11:08.525Z,4.90
2019-05-05T19:13:38.742Z,5.00
2019-05-05T19:16:07.928Z,4.90
2019-05-05T19:18:36.967Z,5.00
2019-05-05T19:21:11.483Z,4.90
2019-05-05T19:23:40.587Z,4.90
2019-05-05T19:26:09.615Z,5.00
2019-05-05T19:28:44.434Z,5.00
2019-05-05T19:33:37.811Z,5.00
2019-05-05T19:36:06.761Z,5.00
2019-05-05T19:38:35.616Z,5.20
2019-05-05T19:41:06.972Z,5.10
2019-05-05T19:43:38.511Z,5.20
2019-05-05T19:46:09.463Z,5.10
2019-05-05T19:48:38.520Z,5.10
2019-05-05T19:56:09.099Z,5.10
2019-05-05T19:58:38.006Z,5.10
2019-05-05T20:01:07.020Z,5.10
2019-05-05T20:03:36.282Z,5.10
2019-05-05T20:06:05.607Z,5.10
2019-05-05T20:08:41.042Z,5.10
2019-05-05T20:11:05.581Z,5.10
2019-05-05T20:16:20.115Z,5.10
2019-05-05T20:18:50.346Z,5.10
2019-05-05T20:21:19.827Z,5.00
2019-05-05T20:23:49.008Z,5.00
2019-05-05T20:26:17.771Z,5.00
2019-05-05T20:28:46.674Z,5.10
2019-05-05T20:31:17.381Z,5.00
2019-05-05T20:36:25.517Z,4.90
2019-05-05T20:38:55.016Z,5.00
2019-05-05T20:41:24.906Z,5.00
2019-05-05T20:43:54.373Z,5.10
2019-05-05T20:46:23.760Z,5.00
2019-05-05T20:48:54.448Z,5.00
2019-05-05T20:51:24.290Z,5.00
2019-05-05T20:56:23.268Z,4.90
2019-05-05T20:58:52.130Z,4.90
2019-05-05T21:01:20.891Z,4.90
2019-05-05T21:03:49.657Z,4.90
2019-05-05T21:06:18.450Z,4.90
2019-05-05T21:08:47.283Z,5.00
2019-05-05T21:11:16.788Z,5.00
2019-05-05T21:13:46.064Z,5.00
2019-05-05T21:18:43.725Z,4.90
2019-05-05T21:21:18.158Z,5.00
2019-05-05T21:23:51.338Z,5.00
2019-05-05T21:26:42.220Z,4.90
2019-05-05T21:29:11.386Z,4.90
2019-05-05T21:31:40.341Z,5.00
2019-05-05T21:34:09.264Z,4.20
2019-05-05T21:36:38.127Z,5.00
2019-05-05T21:41:35.861Z,5.10
2019-05-05T21:44:05.000Z,5.10
2019-05-05T21:46:34.699Z,5.10
2019-05-05T21:49:04.094Z,5.10
2019-05-05T21:51:48.393Z,5.00
2019-05-05T21:54:35.097Z,5.10
2019-05-05T21:57:26.068Z,4.30
2019-05-05T21:59:58.634Z,4.90
2019-05-05T22:04:54.627Z,5.00
2019-05-05T22:07:24.152Z,5.10
2019-05-05T22:09:54.458Z,5.10
2019-05-05T22:12:24.329Z,5.10
2019-05-05T22:14:55.032Z,5.20
2019-05-05T22:17:24.266Z,5.20
2019-05-05T22:20:04.256Z,5.20
2019-05-05T22:22:36.373Z,5.20
2019-05-05T22:25:05.887Z,5.10
2019-05-05T22:30:10.044Z,5.00
2019-05-05T22:32:34.576Z,5.20
2019-05-05T22:35:03.876Z,5.10
2019-05-05T22:37:38.465Z,5.10
2019-05-05T22:40:07.710Z,5.20
2019-05-05T22:42:36.765Z,5.10
2019-05-05T22:45:06.034Z,5.10
2019-05-05T22:50:04.410Z,5.00
2019-05-05T22:52:34.365Z,5.00
2019-05-05T22:55:04.547Z,5.00
2019-05-05T22:57:34.516Z,5.10
2019-05-05T23:00:05.938Z,4.90
2019-05-05T23:02:39.384Z,5.00
2019-05-05T23:05:30.437Z,5.00
2019-05-05T23:07:59.417Z,4.90
2019-05-05T23:10:28.251Z,4.90
2019-05-05T23:15:25.607Z,4.90
2019-05-05T23:18:03.862Z,4.90
2019-05-05T23:21:09.241Z,5.00
2019-05-05T23:23:57.171Z,4.90
2019-05-05T23:26:29.696Z,4.90
2019-05-05T23:29:07.845Z,4.90
2019-05-05T23:31:36.634Z,5.00
2019-05-05T23:34:05.487Z,5.00
2019-05-05T23:36:34.295Z,4.90
2019-05-05T23:39:05.040Z,4.80
2019-05-05T23:44:04.388Z,5.00
2019-05-05T23:46:34.796Z,5.00
2019-05-05T23:49:04.314Z,5.10
2019-05-05T23:51:34.973Z,5.10
2019-05-05T23:54:07.004Z,5.00
2019-05-05T23:56:38.440Z,5.00
2019-05-05T23:59:06.719Z,4.90
